Dyce, United Kingdom
Current Conditions -  °F | °C
As of 3:50 AM on Saturday 25 Oct 2014 (Local Time) from EGPD Reporting Station
Clear Clear  
Wind Chill: 43°   Ceiling: Unl
Heat Index: 48°   Visibility: 6mi
Dew Point: 43°   Wind: 13mph
Humidity: 82%   Direction: 220°SW
Pressure: 29.62"   Gusts: NA
Location:  57.25°N, 2.23°W
Report Text: EGPD 250250Z AUTO 22011KT 9999 NCD 09/06 Q1003
Loading
Personal Weather Stations






























Interactive Weather Map New forecast layout! Learn more

10-Day Weather Forecast

Advertisements
Track Severe Weather on mobile